Time;durP1;ratioP1;P1;durP2;ratioP2;P2;SDS_P1;SDS_P2;PMS_P1;PMS_P2;Temp;Humidity;BMP_temperature;BMP_pressure;BME280_temperature;BME280_humidity;BME280_pressure;Samples;Min_cycle;Max_cycle;Signal;HPM_P1;HPM_P2
2022/08/08 00:02:58;;;;;;;16.67;12.88;;;19.10;99.90;19.20;99102.00;;;;4988566;28;88474;-64
2022/08/08 00:05:51;;;;;;;19.02;11.63;;;19.10;99.90;19.20;99101.00;;;;4988286;28;86983;-64
2022/08/08 00:08:52;;;;;;;15.35;11.80;;;19.40;99.90;19.30;99097.00;;;;4989204;28;87783;-64
2022/08/08 00:11:40;;;;;;;13.35;12.00;;;19.20;99.90;19.30;99114.00;;;;4990465;28;87550;-64
2022/08/08 00:14:39;;;;;;;14.45;12.50;;;19.10;99.90;19.30;99102.00;;;;4995129;28;87157;-64
2022/08/08 00:17:16;;;;;;;14.45;11.45;;;19.00;99.90;19.30;99093.00;;;;4992164;28;87144;-64
2022/08/08 00:19:52;;;;;;;18.17;13.23;;;19.50;99.90;19.30;99097.00;;;;4989598;28;87727;-64
2022/08/08 00:22:27;;;;;;;20.30;13.70;;;19.20;99.90;19.40;99103.00;;;;4989400;28;88314;-64
2022/08/08 00:25:01;;;;;;;18.08;13.30;;;19.20;99.90;19.30;99102.00;;;;4991582;28;87377;-64
2022/08/08 00:27:30;;;;;;;16.20;12.80;;;19.20;99.90;19.40;99109.00;;;;4988429;28;86928;-65
2022/08/08 00:30:07;;;;;;;18.15;13.10;;;19.20;99.90;19.40;99110.00;;;;4975385;28;88721;-65
2022/08/08 00:32:56;;;;;;;17.77;13.82;;;19.60;99.90;19.40;99110.00;;;;4976827;28;88082;-65
2022/08/08 00:35:50;;;;;;;15.20;13.15;;;19.10;99.90;19.30;99104.00;;;;4991010;28;87017;-65
2022/08/08 00:38:41;;;;;;;15.85;14.15;;;19.10;99.90;19.30;99100.00;;;;4990890;28;87787;-64
2022/08/08 00:41:31;;;;;;;18.40;16.38;;;19.00;99.90;19.20;99112.00;;;;4993539;28;88281;-65
2022/08/08 00:44:34;;;;;;;16.80;15.20;;;19.00;99.90;19.20;99120.00;;;;4991073;28;87518;-64
2022/08/08 00:47:41;;;;;;;18.35;16.45;;;18.90;99.90;19.10;99114.00;;;;4986370;28;86938;-64
2022/08/08 00:50:36;;;;;;;23.25;18.63;;;18.40;99.90;19.10;99124.00;;;;4996868;28;86307;-64
2022/08/08 00:53:49;;;;;;;26.13;19.65;;;18.50;99.90;19.10;99113.00;;;;4984673;28;88709;-64
2022/08/08 00:56:59;;;;;;;23.85;21.42;;;18.80;99.90;19.00;99112.00;;;;4990780;28;87408;-64
2022/08/08 01:00:04;;;;;;;23.73;21.17;;;18.20;99.90;19.00;99111.00;;;;4988559;28;87972;-64
2022/08/08 01:03:06;;;;;;;24.20;21.77;;;19.10;99.90;19.00;99124.00;;;;4979617;28;87087;-65
2022/08/08 01:05:57;;;;;;;25.25;22.60;;;18.60;99.90;19.00;99119.00;;;;4990787;28;87020;-64
2022/08/08 01:08:51;;;;;;;25.42;22.92;;;18.70;99.90;19.00;99122.00;;;;4993534;28;90694;-64
2022/08/08 01:11:49;;;;;;;24.33;22.00;;;19.20;99.90;18.90;99114.00;;;;4993794;28;87040;-64
2022/08/08 01:15:19;;;;;;;25.77;23.05;;;18.60;99.90;18.90;99109.00;;;;4990049;28;87089;-64
2022/08/08 01:18:05;;;;;;;26.00;23.52;;;;;18.90;99113.00;;;;4983026;28;91160;-64
2022/08/08 01:21:02;;;;;;;26.88;24.27;;;18.10;99.90;18.90;99115.00;;;;4993970;28;87505;-64
2022/08/08 01:23:59;;;;;;;26.80;24.10;;;18.00;99.90;18.80;99115.00;;;;4992582;28;87083;-64
2022/08/08 01:26:32;;;;;;;31.75;28.65;;;18.60;99.90;18.80;99112.00;;;;4994795;28;87087;-64
2022/08/08 01:29:22;;;;;;;29.23;26.52;;;18.50;99.90;18.70;99106.00;;;;4991579;28;89937;-65
2022/08/08 01:31:55;;;;;;;30.60;27.48;;;;;18.70;99112.00;;;;4973252;28;89377;-64
2022/08/08 01:35:14;;;;;;;31.92;28.92;;;18.30;99.90;18.70;99112.00;;;;4976697;28;87285;-64
2022/08/08 01:38:32;;;;;;;33.20;30.00;;;18.70;99.90;18.60;99102.00;;;;4992922;28;87491;-64
2022/08/08 01:41:58;;;;;;;33.50;30.42;;;17.80;99.90;18.50;99112.00;;;;4991578;28;87731;-64
2022/08/08 01:44:37;;;;;;;39.22;35.63;;;18.30;99.90;18.50;99114.00;;;;4957308;28;88270;-64
2022/08/08 01:47:40;;;;;;;38.30;34.15;;;17.70;99.90;18.50;99101.00;;;;4977592;28;87832;-64
2022/08/08 01:51:03;;;;;;;43.90;39.80;;;18.60;99.90;18.40;99098.00;;;;4993009;28;86298;-64
2022/08/08 01:54:07;;;;;;;42.95;39.15;;;18.20;99.90;18.40;99101.00;;;;4992518;28;87738;-64
2022/08/08 01:56:51;;;;;;;42.53;38.53;;;18.30;99.90;18.30;99101.00;;;;4975451;28;87688;-64
2022/08/08 02:00:11;;;;;;;44.85;40.72;;;18.40;99.90;18.30;99096.00;;;;4992325;28;88298;-65
2022/08/08 02:03:10;;;;;;;47.15;42.60;;;17.90;99.90;18.30;99102.00;;;;4990547;28;87127;-64
2022/08/08 02:06:17;;;;;;;47.28;42.92;;;18.20;99.90;18.30;99093.00;;;;4975514;28;87772;-64
2022/08/08 02:09:29;;;;;;;49.63;44.92;;;18.20;99.90;18.30;99094.00;;;;4976930;28;88510;-64
2022/08/08 02:12:06;;;;;;;49.83;44.83;;;17.50;99.90;18.30;99090.00;;;;4990595;28;87113;-65
2022/08/08 02:15:11;;;;;;;49.17;44.33;;;18.20;99.90;18.30;99095.00;;;;4967374;28;87030;-64
2022/08/08 02:18:05;;;;;;;49.38;44.40;;;18.60;99.90;18.30;99088.00;;;;4978801;28;87680;-64
2022/08/08 02:24:19;;;;;;;48.40;43.50;;;18.20;99.90;18.40;99096.00;;;;4977244;28;87852;-63
2022/08/08 02:26:55;;;;;;;48.65;43.63;;;17.60;99.90;18.40;99102.00;;;;4977326;28;87798;-63
2022/08/08 02:30:02;;;;;;;46.40;41.58;;;18.20;99.90;18.40;99088.00;;;;4976178;28;89765;-63
2022/08/08 02:32:53;;;;;;;46.88;42.20;;;17.60;99.90;18.50;99107.00;;;;4990634;28;87810;-63
2022/08/08 02:35:34;;;;;;;43.35;38.95;;;17.80;99.90;18.50;99104.00;;;;4991584;28;87056;-64
2022/08/08 02:38:44;;;;;;;46.55;41.83;;;18.80;99.90;18.50;99106.00;;;;4993452;28;87085;-63
2022/08/08 02:42:09;;;;;;;45.83;41.08;;;18.30;99.90;18.50;99113.00;;;;4975867;28;87734;-64
2022/08/08 02:45:15;;;;;;;45.45;38.75;;;18.30;99.90;18.50;99117.00;;;;4996575;28;87468;-63
2022/08/08 02:48:07;;;;;;;44.15;39.33;;;18.50;99.90;18.50;99116.00;;;;4980381;28;86971;-64
2022/08/08 02:51:09;;;;;;;46.10;40.47;;;18.00;99.90;18.50;99123.00;;;;4971977;28;87273;-63
2022/08/08 02:54:17;;;;;;;45.08;40.20;;;18.30;99.90;18.50;99131.00;;;;4973145;28;90114;-64
2022/08/08 02:57:34;;;;;;;49.10;40.40;;;17.80;99.90;18.50;99129.00;;;;4992961;28;87144;-63
2022/08/08 03:00:18;;;;;;;49.65;41.08;;;18.10;99.90;18.50;99124.00;;;;4989454;28;88217;-63
2022/08/08 03:03:23;;;;;;;45.17;37.38;;;18.50;99.90;18.50;99132.00;;;;4992757;28;87235;-63
2022/08/08 03:05:58;;;;;;;43.65;36.17;;;18.30;99.90;18.50;99134.00;;;;4972782;28;90006;-63
2022/08/08 03:09:04;;;;;;;44.17;36.22;;;18.30;99.90;18.50;99146.00;;;;4990775;28;87506;-64
2022/08/08 03:12:11;;;;;;;46.10;34.08;;;18.20;99.90;18.40;99145.00;;;;4994377;28;87945;-63
2022/08/08 03:15:23;;;;;;;40.47;33.38;;;18.50;99.90;18.40;99147.00;;;;4989013;28;87789;-63
2022/08/08 03:18:07;;;;;;;;;;;18.20;99.90;18.40;99142.00;;;;4985187;28;88738;-63
2022/08/08 03:20:47;;;;;;;38.58;29.27;;;18.80;99.90;18.40;99138.00;;;;4991615;28;88145;-63
2022/08/08 03:23:18;;;;;;;36.65;32.38;;;;;18.30;99153.00;;;;4990010;28;87143;-63
2022/08/08 03:25:46;;;;;;;38.85;31.33;;;18.00;99.90;18.20;99159.00;;;;4990286;28;87002;-64
2022/08/08 03:28:42;;;;;;;37.70;29.20;;;18.00;99.90;18.20;99151.00;;;;4988409;28;88860;-64
2022/08/08 03:33:56;;;;;;;36.20;27.58;;;17.40;99.90;18.20;99156.00;;;;4990540;28;87201;-63
2022/08/08 03:36:23;;;;;;;36.67;26.55;;;18.00;99.90;18.20;99164.00;;;;4992256;28;87059;-65
2022/08/08 03:38:51;;;;;;;30.35;24.58;;;18.20;99.90;18.20;99159.00;;;;4990784;28;87888;-64
2022/08/08 03:41:20;;;;;;;31.27;24.80;;;;;18.20;99160.00;;;;4990209;28;87342;-64
2022/08/08 03:43:57;;;;;;;27.27;21.55;;;18.00;99.90;18.30;99157.00;;;;4989295;28;87155;-64
2022/08/08 03:46:24;;;;;;;31.00;21.55;;;18.00;99.90;18.20;99171.00;;;;4991079;28;88167;-64
2022/08/08 03:48:59;;;;;;;26.63;20.77;;;17.40;99.90;18.10;99171.00;;;;4971018;28;87413;-64
2022/08/08 03:51:32;;;;;;;31.15;24.08;;;;;18.10;99169.00;;;;4991861;28;87276;-64
2022/08/08 03:53:59;;;;;;;29.50;21.05;;;17.90;99.90;18.10;99172.00;;;;4999669;28;87982;-64
2022/08/08 03:56:26;;;;;;;29.77;20.45;;;;;18.10;99168.00;;;;4971675;28;87270;-64
2022/08/08 03:58:52;;;;;;;27.17;21.30;;;15.40;99.90;18.10;99179.00;;;;4983031;28;87691;-64
2022/08/08 04:01:19;;;;;;;26.77;20.40;;;18.10;99.90;18.00;99179.00;;;;4999206;28;87512;-64
2022/08/08 04:03:48;;;;;;;28.25;20.63;;;18.20;99.90;18.00;99170.00;;;;4993686;28;87057;-64
2022/08/08 04:06:15;;;;;;;25.40;19.65;;;;;18.10;99178.00;;;;4993402;28;87050;-64
2022/08/08 04:08:42;;;;;;;24.85;19.35;;;17.30;99.90;18.00;99176.00;;;;4965890;28;88949;-64
2022/08/08 04:11:15;;;;;;;28.80;20.88;;;18.20;99.90;18.00;99179.00;;;;4985987;28;87485;-64
2022/08/08 04:13:42;;;;;;;21.45;17.88;;;;;18.00;99183.00;;;;4992813;28;87062;-64
2022/08/08 04:16:08;;;;;;;21.48;15.18;;;17.60;99.90;18.00;99190.00;;;;4987216;28;87432;-64
2022/08/08 04:18:39;;;;;;;19.20;15.35;;;18.20;99.90;18.00;99184.00;;;;4989299;28;88385;-64
2022/08/08 04:21:05;;;;;;;18.60;15.93;;;17.60;99.90;18.10;99193.00;;;;4988422;28;88235;-64
2022/08/08 04:23:32;;;;;;;20.58;14.10;;;;;18.10;99189.00;;;;4986121;28;86835;-64
2022/08/08 04:25:59;;;;;;;17.30;14.50;;;17.90;99.90;18.00;99193.00;;;;4986704;28;87123;-64
2022/08/08 04:28:26;;;;;;;19.55;16.63;;;18.10;99.90;17.90;99187.00;;;;4979352;28;88978;-64
2022/08/08 04:30:53;;;;;;;19.08;16.38;;;17.30;99.90;17.90;99189.00;;;;4994887;28;87377;-64
2022/08/08 04:33:19;;;;;;;16.27;14.32;;;17.20;99.90;17.90;99193.00;;;;4987145;28;87371;-64
2022/08/08 04:35:46;;;;;;;24.88;15.27;;;;;17.90;99199.00;;;;4989269;28;87139;-64
2022/08/08 04:38:13;;;;;;;18.77;15.57;;;;;17.90;99197.00;;;;4994350;28;87664;-64
2022/08/08 04:40:42;;;;;;;17.13;13.02;;;17.40;99.90;17.90;99196.00;;;;4992079;28;87222;-64
2022/08/08 04:43:09;;;;;;;20.05;13.77;;;17.70;99.90;18.00;99199.00;;;;4987370;28;88029;-64
2022/08/08 04:45:41;;;;;;;18.30;13.23;;;;;18.00;99204.00;;;;4988515;28;87142;-63
2022/08/08 04:48:08;;;;;;;18.67;12.65;;;;;18.00;99204.00;;;;4992117;28;87582;-65
2022/08/08 04:50:39;;;;;;;15.00;10.40;;;;;18.10;99204.00;;;;4988495;28;87920;-64
2022/08/08 04:53:10;;;;;;;;;;;17.90;99.90;18.10;99203.00;;;;5000159;28;86938;-64
2022/08/08 04:55:37;;;;;;;14.90;12.38;;;;;18.10;99208.00;;;;4991686;28;87369;-65
2022/08/08 04:58:05;;;;;;;13.90;11.25;;;17.30;99.90;18.20;99208.00;;;;4986419;28;87735;-64
2022/08/08 05:00:31;;;;;;;16.85;12.18;;;17.60;99.90;18.30;99210.00;;;;4992635;28;87538;-64
2022/08/08 05:02:57;;;;;;;19.67;12.30;;;;;18.20;99206.00;;;;4995312;28;87571;-65
2022/08/08 05:05:24;;;;;;;15.88;12.52;;;18.30;99.90;18.20;99199.00;;;;4972702;28;87517;-65
2022/08/08 05:07:50;;;;;;;26.17;13.55;;;18.20;99.90;18.20;99208.00;;;;4994044;28;88641;-65
2022/08/08 05:10:17;;;;;;;17.10;11.45;;;;;18.40;99202.00;;;;4968968;28;88565;-64
2022/08/08 05:12:43;;;;;;;20.02;14.77;;;17.70;99.90;18.50;99204.00;;;;4993524;28;87361;-64
2022/08/08 05:15:10;;;;;;;16.38;12.82;;;18.30;99.90;18.50;99203.00;;;;4991505;28;87054;-65
2022/08/08 05:17:36;;;;;;;18.20;13.73;;;17.80;99.90;18.60;99213.00;;;;4990158;28;89089;-65
2022/08/08 05:20:04;;;;;;;17.25;13.00;;;17.90;99.90;18.90;99202.00;;;;4977639;28;89145;-65
2022/08/08 05:22:34;;;;;;;18.08;14.27;;;;;18.80;99221.00;;;;4987832;28;87665;-65
2022/08/08 05:25:03;;;;;;;21.45;15.70;;;17.70;99.90;18.60;99207.00;;;;4991743;28;86535;-65
2022/08/08 05:27:30;;;;;;;19.63;15.57;;;;;18.50;99225.00;;;;4989361;28;87664;-64
2022/08/08 05:29:57;;;;;;;19.45;13.88;;;;;18.80;99217.00;;;;4987793;28;88326;-64
2022/08/08 05:32:26;;;;;;;21.63;13.48;;;18.20;99.90;18.80;99222.00;;;;4985896;28;88516;-64
2022/08/08 05:34:58;;;;;;;19.58;13.90;;;18.70;99.90;19.10;99231.00;;;;4995122;28;87686;-63
2022/08/08 05:37:34;;;;;;;26.88;12.90;;;19.00;99.90;19.40;99223.00;;;;4991365;28;88793;-65
2022/08/08 05:40:04;;;;;;;17.63;13.15;;;19.20;99.90;19.50;99224.00;;;;4992243;28;87533;-64
2022/08/08 05:42:45;;;;;;;20.52;12.40;;;19.60;99.90;19.60;99228.00;;;;5000400;28;87166;-65
2022/08/08 05:45:13;;;;;;;17.63;12.30;;;19.40;99.90;19.60;99216.00;;;;4970015;28;87069;-64
2022/08/08 05:47:41;;;;;;;19.45;13.25;;;20.20;99.90;19.80;99229.00;;;;4994867;28;87694;-64
2022/08/08 05:50:10;;;;;;;22.00;14.57;;;;;19.70;99221.00;;;;4976877;28;88745;-64
2022/08/08 05:52:38;;;;;;;17.60;12.63;;;19.60;99.90;20.00;99223.00;;;;4994249;28;86952;-64
2022/08/08 05:55:09;;;;;;;15.30;10.85;;;19.60;99.90;20.40;99215.00;;;;4990346;28;87449;-64
2022/08/08 05:57:39;;;;;;;15.38;9.18;;;20.00;99.90;20.70;99225.00;;;;4984302;28;89505;-63
2022/08/08 06:00:11;;;;;;;15.33;10.87;;;22.00;99.90;20.80;99228.00;;;;4988355;28;88293;-65
2022/08/08 06:03:09;;;;;;;19.77;11.95;;;20.40;99.90;20.90;99235.00;;;;4990814;28;86998;-64
2022/08/08 06:06:00;;;;;;;17.50;12.75;;;20.20;99.90;20.80;99233.00;;;;4992130;28;87534;-64
2022/08/08 06:08:34;;;;;;;18.15;13.23;;;20.20;99.90;20.60;99245.00;;;;4992315;28;87639;-65
2022/08/08 06:11:05;;;;;;;17.80;13.07;;;20.10;99.90;20.40;99248.00;;;;4991899;28;88494;-65
2022/08/08 06:13:33;;;;;;;20.20;14.13;;;20.20;99.90;20.30;99261.00;;;;4987008;28;86926;-63
2022/08/08 06:16:00;;;;;;;20.20;14.48;;;20.10;99.90;20.20;99249.00;;;;4994982;28;86353;-65
2022/08/08 06:18:50;;;;;;;20.05;13.85;;;19.90;99.90;20.40;99252.00;;;;4991501;28;87486;-65
2022/08/08 06:21:20;;;;;;;17.20;13.40;;;20.10;99.90;20.60;99252.00;;;;4971967;28;87907;-65
2022/08/08 06:23:46;;;;;;;16.95;12.60;;;20.30;99.90;20.80;99256.00;;;;5000578;28;88398;-64
2022/08/08 06:26:14;;;;;;;16.40;12.73;;;20.50;99.90;20.90;99260.00;;;;4988508;28;87440;-64
2022/08/08 06:28:52;;;;;;;14.23;11.25;;;20.50;99.90;21.00;99261.00;;;;4976170;28;89055;-64
2022/08/08 06:31:21;;;;;;;16.98;11.25;;;20.60;99.90;21.10;99258.00;;;;4976204;28;88487;-64
2022/08/08 06:34:03;;;;;;;15.93;11.43;;;21.20;99.90;21.10;99259.00;;;;4975814;28;87425;-64
2022/08/08 06:36:42;;;;;;;15.88;11.07;;;20.80;99.90;21.20;99265.00;;;;4989722;28;87066;-65
2022/08/08 06:39:13;;;;;;;17.60;12.55;;;20.90;99.90;21.20;99277.00;;;;4988275;28;88662;-65
2022/08/08 06:42:02;;;;;;;21.95;13.20;;;20.80;99.90;21.20;99279.00;;;;4987198;28;86653;-64
2022/08/08 06:44:40;;;;;;;17.83;12.05;;;20.70;99.90;21.10;99274.00;;;;4987396;28;87061;-64
2022/08/08 06:47:07;;;;;;;16.10;11.90;;;;;21.20;99286.00;;;;4978737;28;87434;-64
2022/08/08 06:49:35;;;;;;;17.48;11.70;;;20.80;99.90;21.20;99269.00;;;;4987934;28;88632;-64
2022/08/08 06:52:03;;;;;;;17.67;11.55;;;20.70;99.90;21.20;99259.00;;;;4975362;28;87435;-65
2022/08/08 06:54:31;;;;;;;16.98;10.85;;;20.90;99.90;21.30;99280.00;;;;4997167;28;86934;-65
2022/08/08 06:56:58;;;;;;;17.95;11.10;;;20.90;99.90;21.40;99278.00;;;;4979222;28;87539;-65
2022/08/08 06:59:27;;;;;;;18.83;10.98;;;;;21.50;99274.00;;;;4980151;28;87502;-65
2022/08/08 07:02:01;;;;;;;14.73;11.05;;;20.80;99.90;21.20;99272.00;;;;4954960;28;87433;-65
2022/08/08 07:04:49;;;;;;;15.27;10.95;;;20.80;99.90;21.30;99269.00;;;;4983864;28;86956;-65
2022/08/08 07:07:31;;;;;;;17.55;10.80;;;21.00;99.90;21.40;99279.00;;;;4996201;28;86229;-65
2022/08/08 07:10:08;;;;;;;19.45;13.70;;;20.80;99.90;21.10;99270.00;;;;4979277;28;87476;-65
2022/08/08 07:12:45;;;;;;;20.95;14.43;;;20.40;99.90;20.90;99277.00;;;;4989838;28;87131;-65
2022/08/08 07:15:17;;;;;;;22.05;14.07;;;20.70;99.90;21.00;99276.00;;;;4972122;28;87945;-65
2022/08/08 07:17:49;;;;;;;19.27;15.00;;;20.80;99.90;21.10;99269.00;;;;4974649;28;87133;-65
2022/08/08 07:20:30;;;;;;;19.45;13.73;;;20.60;99.90;21.00;99283.00;;;;4988759;28;88684;-64
2022/08/08 07:23:27;;;;;;;18.30;12.60;;;20.90;99.90;21.40;99284.00;;;;4995673;28;87207;-64
2022/08/08 07:26:01;;;;;;;16.85;11.80;;;21.10;99.90;21.60;99278.00;;;;4973855;28;87104;-65
2022/08/08 07:28:28;;;;;;;18.15;12.63;;;;;21.60;99286.00;;;;5000534;28;87272;-64
2022/08/08 07:30:57;;;;;;;14.95;10.98;;;20.80;99.90;21.60;99282.00;;;;4996883;28;87729;-64
2022/08/08 07:33:27;;;;;;;17.97;12.60;;;20.80;99.90;21.10;99281.00;;;;4994087;28;87428;-65
2022/08/08 07:35:56;;;;;;;20.08;11.90;;;20.50;99.90;21.00;99297.00;;;;4988914;28;87428;-64
2022/08/08 07:38:23;;;;;;;15.45;12.18;;;20.40;99.90;20.80;99298.00;;;;4974370;28;87110;-64
2022/08/08 07:40:58;;;;;;;18.13;12.20;;;;;20.70;99294.00;;;;4951542;28;89617;-64
2022/08/08 07:43:31;;;;;;;15.47;11.40;;;20.40;99.90;20.80;99289.00;;;;4991923;28;86833;-64
2022/08/08 07:45:57;;;;;;;16.38;12.05;;;20.60;99.90;20.70;99289.00;;;;4990848;28;87972;-64
2022/08/08 07:48:24;;;;;;;13.63;11.98;;;20.10;99.90;20.60;99286.00;;;;4995133;28;87013;-64
2022/08/08 07:50:57;;;;;;;19.45;12.68;;;20.40;99.90;20.80;99273.00;;;;4996788;28;87530;-64
2022/08/08 07:54:32;;;;;;;14.82;11.10;;;20.90;99.90;21.10;99279.00;;;;4980549;28;86942;-64
2022/08/08 07:57:34;;;;;;;14.15;9.93;;;21.20;99.90;21.80;99282.00;;;;4980667;28;87014;-66
2022/08/08 08:00:14;;;;;;;15.27;9.68;;;21.20;99.90;21.70;99282.00;;;;4979024;28;87388;-64
2022/08/08 08:02:58;;;;;;;16.42;10.00;;;21.40;99.90;21.80;99291.00;;;;4996055;28;87645;-64
2022/08/08 08:05:27;;;;;;;12.32;10.00;;;21.80;99.90;22.20;99275.00;;;;4976040;28;90021;-64
2022/08/08 08:08:12;;;;;;;13.40;9.80;;;21.80;99.90;22.20;99284.00;;;;4998291;28;87937;-64
2022/08/08 08:10:38;;;;;;;15.95;9.57;;;;;22.30;99289.00;;;;4976324;28;86926;-64
2022/08/08 08:13:49;;;;;;;22.05;9.88;;;21.90;99.90;22.40;99292.00;;;;4994836;28;88720;-64
2022/08/08 08:16:24;;;;;;;15.85;11.02;;;21.50;99.90;21.80;99300.00;;;;4986004;28;88847;-64
2022/08/08 08:18:59;;;;;;;16.90;10.90;;;21.50;99.90;22.00;99293.00;;;;4992678;28;87427;-64
2022/08/08 08:21:44;;;;;;;14.52;9.48;;;21.60;99.90;22.40;99292.00;;;;4968494;28;87030;-64
2022/08/08 08:24:16;;;;;;;15.32;10.63;;;;;22.70;99289.00;;;;4989371;28;87701;-65
2022/08/08 08:26:43;;;;;;;14.65;11.13;;;22.10;99.90;23.00;99298.00;;;;4988869;28;87401;-65
2022/08/08 08:29:10;;;;;;;15.70;11.32;;;22.30;99.90;22.90;99300.00;;;;5000240;28;87248;-64
2022/08/08 08:31:39;;;;;;;15.40;11.30;;;;;23.20;99290.00;;;;4993931;28;87510;-64
2022/08/08 08:34:06;;;;;;;15.02;12.30;;;;;22.90;99293.00;;;;4940820;28;90632;-61
2022/08/08 08:36:34;;;;;;;20.02;11.05;;;;;22.40;99289.00;;;;4988686;28;88415;-59
2022/08/08 08:39:02;;;;;;;18.52;10.55;;;22.00;99.90;22.40;99294.00;;;;4988079;28;87516;-60
2022/08/08 08:41:36;;;;;;;16.15;9.75;;;;;22.60;99292.00;;;;4986579;28;86907;-60
2022/08/08 08:44:05;;;;;;;17.60;10.25;;;22.10;99.90;22.80;99298.00;;;;4977622;28;88084;-59
2022/08/08 08:46:34;;;;;;;13.55;10.25;;;22.40;99.90;23.00;99299.00;;;;4990524;28;88467;-60
2022/08/08 08:49:01;;;;;;;16.42;11.52;;;21.90;99.90;22.40;99300.00;;;;4974580;28;87314;-60
2022/08/08 08:51:37;;;;;;;22.35;12.90;;;21.90;99.90;22.40;99291.00;;;;4994396;28;86550;-59
2022/08/08 08:54:07;;;;;;;16.20;11.50;;;21.50;99.90;22.10;99304.00;;;;4979939;28;87355;-58
2022/08/08 08:56:37;;;;;;;20.40;12.13;;;21.80;99.90;22.30;99291.00;;;;4991086;28;88037;-60
2022/08/08 08:59:14;;;;;;;17.73;12.15;;;22.00;99.90;22.50;99298.00;;;;4987400;28;88245;-59
2022/08/08 09:01:47;;;;;;;21.33;13.70;;;22.30;99.90;22.60;99288.00;;;;4969378;28;87090;-61
2022/08/08 09:04:25;;;;;;;16.52;13.02;;;21.90;99.90;22.20;99298.00;;;;4980598;28;87600;-59
2022/08/08 09:06:52;;;;;;;18.40;12.63;;;22.10;99.90;22.40;99293.00;;;;4982676;28;87124;-61
2022/08/08 09:09:25;;;;;;;19.17;11.95;;;21.80;99.90;22.20;99292.00;;;;4970737;28;86878;-61
2022/08/08 09:11:54;;;;;;;19.90;12.55;;;22.00;99.90;22.40;99290.00;;;;4988948;28;87531;-60
2022/08/08 09:14:24;;;;;;;14.07;11.68;;;22.10;99.90;22.50;99294.00;;;;4999287;28;87762;-60
2022/08/08 09:16:53;;;;;;;17.60;12.82;;;22.30;99.90;22.80;99298.00;;;;4986865;28;88540;-60
2022/08/08 09:19:20;;;;;;;16.77;13.52;;;22.70;99.90;23.00;99311.00;;;;4993037;28;87234;-61
2022/08/08 09:21:51;;;;;;;16.60;12.98;;;23.00;99.90;23.40;99305.00;;;;4988215;28;87562;-61
2022/08/08 09:24:18;;;;;;;19.08;13.40;;;;;23.50;99296.00;;;;4991413;28;88063;-61
2022/08/08 09:26:59;;;;;;;17.08;13.73;;;22.90;99.90;23.30;99309.00;;;;4991633;28;88497;-59
2022/08/08 09:29:30;;;;;;;19.27;13.55;;;23.00;99.90;23.50;99293.00;;;;4986699;28;86992;-60
2022/08/08 09:32:06;;;;;;;19.15;12.98;;;23.10;99.90;23.70;99293.00;;;;4995587;28;87036;-60
2022/08/08 09:34:50;;;;;;;18.48;13.40;;;22.80;99.90;23.40;99304.00;;;;4990462;28;87625;-61
2022/08/08 09:37:27;;;;;;;15.98;13.57;;;22.80;99.90;22.90;99297.00;;;;4994740;28;87544;-60
2022/08/08 09:40:19;;;;;;;15.57;12.27;;;22.60;99.90;22.90;99288.00;;;;4990844;28;87079;-60
2022/08/08 09:42:48;;;;;;;17.90;13.10;;;22.60;99.90;23.00;99291.00;;;;4990495;28;86493;-60
2022/08/08 09:45:52;;;;;;;17.85;12.98;;;22.90;99.90;23.30;99295.00;;;;4996959;28;89474;-60
2022/08/08 09:48:19;;;;;;;18.20;12.43;;;;;23.60;99298.00;;;;4995225;28;87788;-60
2022/08/08 09:50:45;;;;;;;15.07;13.43;;;23.00;99.90;23.30;99305.00;;;;4997166;28;88053;-60
2022/08/08 09:53:18;;;;;;;21.48;13.68;;;22.70;99.90;23.10;99285.00;;;;4986412;28;86982;-59
2022/08/08 09:55:46;;;;;;;19.95;13.13;;;22.70;99.90;23.10;99288.00;;;;4992407;28;87668;-60
2022/08/08 09:58:19;;;;;;;19.55;13.98;;;22.60;99.90;23.00;99299.00;;;;4998654;28;87303;-60
2022/08/08 10:00:47;;;;;;;17.70;13.73;;;22.30;99.90;22.70;99300.00;;;;4992014;28;86952;-60
2022/08/08 10:03:16;;;;;;;19.02;13.40;;;22.30;99.90;22.70;99304.00;;;;4995501;28;87121;-60
2022/08/08 10:05:44;;;;;;;21.55;14.00;;;22.20;99.90;22.50;99309.00;;;;4993838;28;87417;-60
2022/08/08 10:08:11;;;;;;;16.73;13.48;;;;;22.50;99295.00;;;;5001588;28;89095;-60
2022/08/08 10:10:41;;;;;;;18.10;12.90;;;22.30;99.90;22.60;99293.00;;;;4995718;28;86921;-60
2022/08/08 10:13:27;;;;;;;18.53;12.70;;;22.10;99.90;22.60;99304.00;;;;4988754;28;87069;-60
2022/08/08 10:15:55;;;;;;;22.08;13.27;;;22.40;99.90;22.80;99311.00;;;;4986193;28;89148;-61
2022/08/08 10:18:32;;;;;;;15.75;12.57;;;22.60;99.90;23.20;99307.00;;;;4992670;28;88288;-61
2022/08/08 10:21:10;;;;;;;18.98;13.52;;;22.60;99.90;23.00;99300.00;;;;4985293;28;86966;-61
2022/08/08 10:23:44;;;;;;;18.23;14.05;;;22.20;99.90;22.60;99300.00;;;;4989778;28;87129;-61
2022/08/08 10:26:52;;;;;;;18.02;12.32;;;22.40;99.90;22.90;99311.00;;;;4992145;28;88933;-61
2022/08/08 10:29:39;;;;;;;21.90;13.45;;;22.70;99.90;23.10;99311.00;;;;4999598;28;87720;-60
2022/08/08 10:34:59;;;;;;;20.33;12.95;;;22.30;99.90;22.60;99310.00;;;;4990063;28;86328;-61
2022/08/08 10:37:29;;;;;;;17.50;13.38;;;22.00;99.90;22.40;99318.00;;;;4994689;28;87695;-61
2022/08/08 10:39:58;;;;;;;18.87;13.80;;;22.20;99.90;22.50;99322.00;;;;4992293;28;87858;-61
2022/08/08 10:42:35;;;;;;;14.90;12.88;;;22.20;99.90;22.60;99300.00;;;;4986755;28;87953;-61
2022/08/08 10:45:06;;;;;;;14.88;12.77;;;22.40;99.90;22.80;99306.00;;;;4986521;28;87620;-61
2022/08/08 10:47:33;;;;;;;14.27;11.75;;;;;22.90;99295.00;;;;4995442;28;87533;-61
2022/08/08 10:50:02;;;;;;;20.25;11.38;;;22.60;99.90;23.10;99304.00;;;;4984384;28;86976;-60
2022/08/08 10:52:40;;;;;;;16.30;12.95;;;22.50;99.90;22.90;99293.00;;;;4990541;28;87500;-59
2022/08/08 10:55:08;;;;;;;18.27;13.00;;;;;22.90;99300.00;;;;4984123;28;86977;-60
2022/08/08 10:57:40;;;;;;;16.17;14.32;;;22.60;99.90;23.00;99290.00;;;;4999615;28;88665;-60
2022/08/08 11:00:11;;;;;;;17.95;13.93;;;22.50;99.90;23.00;99294.00;;;;4994433;28;86734;-60
2022/08/08 11:02:38;;;;;;;14.80;12.17;;;22.50;99.90;22.90;99297.00;;;;4988998;28;87320;-60
2022/08/08 11:05:08;;;;;;;15.15;12.15;;;22.00;99.90;22.40;99306.00;;;;4994486;28;87024;-61
2022/08/08 11:07:41;;;;;;;18.63;12.40;;;22.00;99.90;22.40;99293.00;;;;5001108;28;88594;-60
2022/08/08 11:10:14;;;;;;;21.92;13.10;;;22.00;99.90;22.50;99297.00;;;;4995432;28;88239;-60
2022/08/08 11:12:49;;;;;;;12.48;11.18;;;21.90;99.90;22.70;99298.00;;;;4992989;28;87299;-59
2022/08/08 11:15:24;;;;;;;15.32;9.82;;;22.30;99.90;22.70;99295.00;;;;4989955;28;86996;-61
2022/08/08 11:17:51;;;;;;;16.33;10.65;;;22.80;99.90;22.80;99290.00;;;;4992394;28;87024;-61
2022/08/08 11:20:28;;;;;;;15.63;12.40;;;22.60;99.90;22.70;99294.00;;;;4994621;28;87772;-61
2022/08/08 11:23:00;;;;;;;11.70;9.35;;;22.00;99.90;22.90;99297.00;;;;4990320;28;87039;-61
2022/08/08 11:25:32;;;;;;;14.43;9.57;;;22.70;99.90;23.20;99296.00;;;;4989043;28;86523;-60
2022/08/08 11:28:02;;;;;;;16.95;10.73;;;22.50;99.90;22.90;99293.00;;;;4991372;28;87913;-61
2022/08/08 11:30:33;;;;;;;12.50;10.45;;;22.10;99.90;22.50;99294.00;;;;4989447;28;87736;-61
2022/08/08 11:33:03;;;;;;;15.07;9.50;;;22.10;99.90;22.50;99298.00;;;;4992418;28;87931;-61
2022/08/08 11:35:30;;;;;;;15.65;9.68;;;21.90;99.90;22.30;99299.00;;;;4991282;28;87101;-61
2022/08/08 11:37:57;;;;;;;13.57;10.65;;;;;22.30;99307.00;;;;4991692;28;87171;-60
2022/08/08 11:40:24;;;;;;;12.88;9.88;;;;;22.50;99310.00;;;;4994009;28;87357;-60
2022/08/08 11:42:51;;;;;;;15.57;10.40;;;22.10;99.90;22.40;99304.00;;;;4993355;28;87014;-60
2022/08/08 11:45:21;;;;;;;21.33;10.45;;;22.00;99.90;22.40;99304.00;;;;4988334;28;87526;-59
2022/08/08 11:47:48;;;;;;;20.27;11.02;;;22.00;99.90;22.50;99306.00;;;;4988634;28;87468;-59
2022/08/08 11:50:18;;;;;;;16.50;11.38;;;22.10;99.90;22.50;99316.00;;;;4992613;28;88482;-59